Rouen Airport

LFOP · Seine-Maritime, Normandy, France

METAR history LFOP · Rouen Airport

Below you see METARs of the last few days. Select a year to browse through older METARs, from the year 2007 onwards.

November 28, 2022

Time Code Weather Temp. Visibility Ceiling Wind METAR/SPECI
11:30
M
10 °C 10 km+ 1,000 ft 230° 230° 9 kt SPECI LFOE 281030Z AUTO 23009KT 210V270 9999 BKN010 BKN250 10/08 Q1012 BECMG BKN015
12:30
V
10 °C 10 km+ - 230° 230° 10 kt METAR LFOE 281130Z AUTO 23010KT 200V260 9999 FEW010 SCT250 10/08 Q1011 NOSIG
12:00
I
9 °C 10 km+ 900 ft 220° 220° 8 kt METAR LFOE 281100Z AUTO 22008KT 9999 BKN009 09/07 Q1011 BECMG BKN015
11:30
M
10 °C 10 km+ 1,000 ft 230° 230° 9 kt METAR LFOE 281030Z AUTO 23009KT 210V270 9999 BKN010 BKN250 10/08 Q1012 BECMG BKN015
11:00
V
9 °C 10 km+ - 230° 230° 9 kt METAR LFOE 281000Z AUTO 23009KT CAVOK 09/08 Q1011 NOSIG
10:30
V
8 °C 10 km+ - 230° 230° 8 kt METAR LFOE 280930Z AUTO 23008KT CAVOK 08/08 Q1011 NOSIG
10:00
V
7 °C 10 km+ - 230° 230° 6 kt METAR LFOE 280900Z AUTO 23006KT CAVOK 07/07 Q1011 TEMPO 4000 BR
09:30
V
7 °C 10 km+ - Var 000° 0 kt METAR LFOE 280830Z AUTO /////KT CAVOK 07/06 Q1011
09:00
V
7 °C 10 km+ - Var 000° 0 kt METAR LFOE 280800Z AUTO /////KT CAVOK 07/06 Q1011
08:30
M
7 °C 7 km - Var 000° 0 kt METAR LFOE 280730Z AUTO /////KT 7000 NSC 07/07 Q1011
08:00
V
7 °C 9 km 22,000 ft Var 000° 0 kt METAR LFOE 280700Z AUTO /////KT 9000 FEW042 BKN220 OVC240 07/06 Q1011
07:30
V
7 °C 10 km+ 22,000 ft 250° 250° 4 kt METAR LFOE 280630Z AUTO 25004KT 210V290 9999 FEW046 SCT200 BKN220 07/07 Q1011 TEMPO 4000 BR BKN003
07:00
V
7 °C 10 km+ - Var 000° 0 kt METAR LFOE 280600Z AUTO /////KT CAVOK 07/07 Q1011
06:30
V
8 °C 8 km 20,000 ft 230° 230° 6 kt METAR LFOE 280530Z AUTO 23006KT 8000 FEW017 OVC200 08/08 Q1011 BECMG OVC003
06:00
M
7 °C 5 km 18,000 ft 230° 230° 5 kt METAR LFOE 280500Z AUTO 23005KT 5000 BR SCT019 OVC180 07/07 Q1011 BECMG OVC003
05:30
M
7 °C 6 km - 220° 220° 7 kt METAR LFOE 280430Z AUTO 22007KT 6000 NSC 07/07 Q1011 BECMG OVC003
05:00
M
8 °C 6 km - 210° 210° 7 kt METAR LFOE 280400Z AUTO 21007KT 6000 NSC 08/08 Q1011 BECMG OVC003
04:30
M
8 °C 7 km - 200° 200° 5 kt METAR LFOE 280330Z AUTO 20005KT 7000 NSC 08/08 Q1011 BECMG OVC003
04:00
V
8 °C 8 km 16,000 ft 230° 230° 5 kt METAR LFOE 280300Z AUTO 23005KT 8000 FEW032 SCT056 BKN160 08/07 Q1011 BECMG OVC003
03:30
V
8 °C 10 km+ 5,200 ft 230° 230° 5 kt METAR LFOE 280230Z AUTO 23005KT 9999 FEW009 BKN052 BKN160 08/08 Q1011 BECMG OVC003
03:00
V
8 °C 10 km+ 6,200 ft 240° 240° 4 kt METAR LFOE 280200Z AUTO 24004KT 9999 FEW009 SCT033 BKN062 08/08 Q1011 BECMG 18010KT OVC003
02:30
M
9 °C 10 km+ 2,000 ft 240° 240° 6 kt METAR LFOE 280130Z AUTO 24006KT 9999 FEW008 BKN020 BKN026 09/08 Q1011 BECMG 18010KT OVC003
02:00
M
9 °C 10 km+ 2,500 ft 230° 230° 6 kt METAR LFOE 280100Z AUTO 23006KT 9999 BKN025 OVC030 09/08 Q1011 TEMPO 4000 RA BECMG OVC003
01:30
M
9 °C 10 km+ 2,800 ft 220° 220° 5 kt METAR LFOE 280030Z AUTO 22005KT 9999 BKN028 BKN100 OVC180 09/08 Q1011 TEMPO 4000 RA BECMG OVC003
01:00
V
9 °C 10 km+ 10,000 ft 220° 220° 5 kt METAR LFOE 280000Z AUTO 22005KT 9999 FEW033 SCT052 BKN100 09/08 Q1011 TEMPO 4000 RA BKN006
00:30
V
9 °C 10 km+ 4,900 ft 230° 230° 5 kt METAR LFOE 272330Z AUTO 23005KT 9999 SCT040 BKN049 OVC056 09/08 Q1011 TEMPO 4000 RA BKN006
00:00
I
9 °C 10 km+ 800 ft 230° 230° 5 kt METAR LFOE 272300Z AUTO 23005KT 9999 BKN008 BKN036 OVC056 09/08 Q1011 TEMPO 4000 RA

November 27, 2022

Time Code Weather Temp. Visibility Ceiling Wind METAR/SPECI
23:30
I
9 °C 10 km+ 900 ft 230° 230° 7 kt METAR LFOE 272230Z AUTO 23007KT 9999 BKN009 BKN044 BKN074 09/08 Q1011 TEMPO 4000 RA
23:00
M
9 °C 10 km+ 1,400 ft 220° 220° 8 kt METAR LFOE 272200Z AUTO 22008KT 9999 -RA SCT008 BKN014 BKN033 09/08 Q1011 TEMPO 4000 RA BKN006
22:30
M
9 °C 10 km+ 1,500 ft 240° 240° 7 kt METAR LFOE 272130Z AUTO 24007KT 220V290 9999 -RA FEW009/// BKN015/// BKN042/// //////TCU 09/08 Q1011 TEMPO 4000 RA BKN006
22:00
I
9 °C 9 km 900 ft 230° 230° 9 kt METAR LFOE 272100Z AUTO 23009KT 9000 -RA BKN009/// BKN016/// BKN031/// ///TCU 09/08 Q1011 TEMPO 4000 RA BKN006
21:30
M
9 °C 9 km 1,200 ft 220° 220° 9 kt METAR LFOE 272030Z AUTO 22009KT 9000 -RA BKN012/// OVC025/// //////TCU 09/08 Q1011 TEMPO 4000 RA BECMG BKN008
21:00
M
9 °C 10 km+ 2,400 ft 210° 210° 10 kt METAR LFOE 272000Z AUTO 21010KT 9999 -RA SCT015/// BKN024/// BKN034/// //////TCU 09/08 Q1011 TEMPO 4000 RA BECMG BKN008
20:30
V
9 °C 10 km+ 3,000 ft 190° 190° 10 kt METAR LFOE 271930Z AUTO 19010KT 9999 -RA FEW025/// BKN030/// BKN049/// //////TCU 09/08 Q1011 TEMPO 4000 RA BECMG BKN008
20:00
V
9 °C 10 km+ 7,200 ft 170° 170° 9 kt METAR LFOE 271900Z AUTO 17009KT 9999 -RA FEW004/// BKN072/// OVC084/// ///TCU 09/08 Q1011 BECMG BKN008
19:30
V
9 °C 8 km 7,000 ft 160° 160° 9 kt METAR LFOE 271830Z AUTO 16009KT 8000 RA FEW026/// SCT045/// BKN070/// //////TCU 09/09 Q1012 BECMG NSW BKN008
19:00
V
10 °C 10 km+ - 170° 170° 7 kt METAR LFOE 271800Z AUTO 17007KT 9999 RA //////TCU 10/08 Q1012 BECMG NSW BKN008
18:30
V
10 °C 10 km+ - Var 000° 0 kt METAR LFOE 271730Z AUTO /////KT 9999 -RA ///TCU 10/08 Q1012
18:00
V
10 °C 10 km+ - 210° 210° 10 kt METAR LFOE 271700Z AUTO 21010KT 9999 -RA //////TCU 10/09 Q1013 BECMG SCT035 BKN060
17:30
V
10 °C 9 km 7,200 ft 220° 220° 14 kt METAR LFOE 271630Z AUTO 22014KT 9000 RA FEW038/// BKN072/// OVC082/// ///TCU 10/08 Q1013 TEMPO 4000 -RA BKN004
17:00
V
10 °C 10 km+ 6,600 ft 210° 210° 13 kt METAR LFOE 271600Z AUTO 21013KT 9999 -RA SCT035/// SCT052/// BKN066/// ///TCU 10/09 Q1014 TEMPO 4000 -RA BKN004
16:30
V
10 °C 10 km+ 3,500 ft 210° 210° 12 kt METAR LFOE 271530Z AUTO 21012KT 9999 -RA FEW013/// BKN035/// BKN056/// //////TCU 10/09 Q1014 TEMPO 4000 -RA BKN004
16:00
V
10 °C 10 km+ 3,000 ft Var 000° 0 kt METAR LFOE 271500Z AUTO /////KT 9999 -RA FEW008/// SCT021/// BKN030/// ///TCU 10/10 Q1014
15:30
L
9 °C 10 km+ 400 ft Var 000° 0 kt METAR LFOE 271430Z AUTO /////KT 9999 -DZ BKN004/// BKN013/// BKN020/// ///TCU 09/09 Q1014
15:00
L
9 °C 10 km+ 400 ft Var 000° 0 kt METAR LFOE 271400Z AUTO /////KT 9999 -RADZ OVC004 09/09 Q1014
14:30
L
9 °C 10 km+ 400 ft 180° 180° 10 kt METAR LFOE 271330Z AUTO 18010KT 9999 OVC004 09/08 Q1015 TEMPO 4000 -RA
14:00
L
8 °C 9 km 400 ft 180° 180° 10 kt METAR LFOE 271300Z AUTO 18010KT 9000 OVC004 08/08 Q1015 TEMPO 4000 -RA
13:30
L
8 °C 5 km 400 ft 170° 170° 8 kt METAR LFOE 271230Z AUTO 17008KT 5000 -RA BR OVC004/// ///TCU 08/08 Q1016 TEMPO BKN004
13:00
L
8 °C 10 km+ 400 ft 180° 180° 9 kt METAR LFOE 271200Z AUTO 18009KT 9999 -RA OVC004/// //////TCU 08/07 Q1016 TEMPO 4000 -RA BKN004
12:30
I
8 °C 10 km+ 500 ft 180° 180° 9 kt METAR LFOE 271130Z AUTO 18009KT 9999 -RA OVC005/// //////TCU 08/07 Q1017 TEMPO 4000 -RA BKN004
12:00
I
7 °C 10 km+ 600 ft 180° 180° 10 kt METAR LFOE 271100Z AUTO 18010KT 9999 -RA OVC006 07/07 Q1017 TEMPO 4000 -RA
11:30
I
7 °C 10 km+ 700 ft 190° 190° 10 kt METAR LFOE 271030Z AUTO 19010KT 9999 OVC007 07/06 Q1018 TEMPO 4000 -RA
11:00
I
7 °C 10 km+ 700 ft 180° 180° 9 kt METAR LFOE 271000Z AUTO 18009KT 9999 -RA OVC007 07/06 Q1018 TEMPO 4000 -RA
10:30
M
7 °C 10 km+ 1,000 ft Var 000° 0 kt METAR LFOE 270930Z AUTO /////KT 9999 -RA BKN010 OVC024 07/06 Q1018
10:00
M
7 °C 10 km+ 1,000 ft Var 000° 0 kt METAR LFOE 270900Z AUTO /////KT 9999 -RA BKN010/// BKN034/// BKN054/// //////TCU 07/06 Q1018
09:30
M
7 °C 10 km+ 2,600 ft 180° 180° 11 kt METAR LFOE 270830Z AUTO 18011KT 9999 -RA FEW006 BKN026 BKN033 07/06 Q1018 TEMPO 4000 -RA BKN005
09:00
M
7 °C 9 km 2,600 ft 180° 180° 11 kt METAR LFOE 270800Z AUTO 18011KT 9000 -RA FEW009/// BKN026/// BKN032/// //////TCU 07/06 Q1018 TEMPO 4000 -RA BKN005
08:30
M
7 °C 10 km+ 2,800 ft Var 000° 0 kt METAR LFOE 270730Z AUTO /////KT 9999 -RA OVC028/// ///TCU 07/06 Q1019
08:00
V
7 °C 8 km 3,200 ft 180° 180° 11 kt METAR LFOE 270700Z AUTO 18011KT 8000 -RA FEW019/// OVC032/// ///TCU 07/06 Q1019 BECMG 4000 RA BKN003 BKN008
07:30
V
7 °C 10 km+ 3,400 ft 180° 180° 11 kt METAR LFOE 270630Z AUTO 18011KT 9999 -RA FEW028/// BKN034/// BKN041/// ///TCU 07/06 Q1019 BECMG 4000 RA BKN003 BKN008
07:00
V
7 °C 10 km+ 4,500 ft 180° 180° 10 kt METAR LFOE 270600Z AUTO 18010KT 9999 -RA SCT038/// BKN045/// BKN056/// //////TCU 07/06 Q1019 BECMG 4000 RA BKN003 BKN008
06:30
V
7 °C 10 km+ 6,800 ft 180° 180° 9 kt METAR LFOE 270530Z AUTO 18009KT 9999 -RA FEW026 SCT058 OVC068 07/06 Q1020 BECMG 4000 RA BKN003 BKN008
06:00
V
7 °C 10 km+ 4,900 ft 180° 180° 9 kt METAR LFOE 270500Z AUTO 18009KT 9999 -RA FEW042/// OVC049/// //////TCU 07/06 Q1020 BECMG 4000 RA BKN003 BKN008
05:30
V
7 °C 10 km+ 4,700 ft 180° 180° 11 kt METAR LFOE 270430Z AUTO 18011KT 9999 -RA BKN047/// OVC054/// ///TCU 07/06 Q1020 BECMG 4000 RA BKN003 BKN008
05:00
V
7 °C 10 km+ 5,400 ft 180° 180° 10 kt METAR LFOE 270400Z AUTO 18010KT 9999 -RA FEW045 OVC054 07/06 Q1020 BECMG 4000 RA BKN003 BKN008
04:30
V
7 °C 10 km+ - 180° 180° 10 kt METAR LFOE 270330Z AUTO 18010KT 9999 -RA NSC 07/06 Q1021 BECMG 4000 RA BKN003 BKN008
04:00
V
7 °C 10 km+ - 180° 180° 10 kt METAR LFOE 270300Z AUTO 18010KT 9999 -RA NSC 07/06 Q1021 BECMG 4000 RA BKN003 BKN008
03:30
V
7 °C 10 km+ - 180° 180° 11 kt METAR LFOE 270230Z AUTO 18011KT CAVOK 07/06 Q1021 BECMG 4000 RA BKN003 BKN008
03:00
V
7 °C 10 km+ 6,600 ft 170° 170° 9 kt METAR LFOE 270200Z AUTO 17009KT 9999 FEW007 OVC066 07/06 Q1022 BECMG 4000 RA BKN003 BKN008
02:30
V
7 °C 10 km+ 7,200 ft 180° 180° 11 kt METAR LFOE 270130Z AUTO 18011KT 9999 -DZ SCT008 OVC072 07/06 Q1022 BECMG 4000 RA BKN003 BKN008
02:00
V
7 °C 10 km+ 5,800 ft 180° 180° 11 kt METAR LFOE 270100Z AUTO 18011KT 9999 FEW008 BKN058 OVC076 07/06 Q1022 NOSIG
01:30
I
7 °C 10 km+ 700 ft 180° 180° 11 kt METAR LFOE 270030Z AUTO 18011KT 9999 BKN007 BKN052 OVC080 07/06 Q1023 BECMG NSC
01:00
I
7 °C 10 km+ 700 ft 180° 180° 12 kt METAR LFOE 270000Z AUTO 18012KT 9999 OVC007 07/06 Q1023 BECMG NSC
00:30
I
7 °C 10 km+ 700 ft 180° 180° 11 kt METAR LFOE 262330Z AUTO 18011KT 9999 OVC007 07/06 Q1023 BECMG NSC
00:00
I
7 °C 10 km+ 700 ft 170° 170° 11 kt METAR LFOE 262300Z AUTO 17011KT 9999 OVC007 07/06 Q1023 BECMG NSC

November 26, 2022

Time Code Weather Temp. Visibility Ceiling Wind METAR/SPECI
23:30
I
7 °C 10 km+ 700 ft 170° 170° 11 kt METAR LFOE 262230Z AUTO 17011KT 9999 OVC007 07/06 Q1024 BECMG NSC
23:00
I
8 °C 10 km+ 700 ft Var 000° 0 kt METAR LFOE 262200Z AUTO /////KT 9999 OVC007 08/06 Q1024
22:30
I
8 °C 10 km+ 700 ft 170° 170° 12 kt METAR LFOE 262130Z AUTO 17012KT 9999 BKN007 OVC100 08/07 Q1025 NOSIG
22:00
I
8 °C 10 km+ 700 ft 170° 170° 10 kt METAR LFOE 262100Z AUTO 17010KT 9999 OVC007 08/07 Q1025 NOSIG
21:30
I
8 °C 10 km+ 700 ft 170° 170° 12 kt METAR LFOE 262030Z AUTO 17012KT 9999 OVC007 08/07 Q1025 BECMG SCT005
21:00
I
8 °C 10 km+ 700 ft 170° 170° 10 kt METAR LFOE 262000Z AUTO 17010KT 9999 OVC007 08/07 Q1026 BECMG SCT005
20:30
I
8 °C 10 km+ 800 ft Var 000° 0 kt METAR LFOE 261930Z AUTO /////KT 9999 OVC008 08/07 Q1026
20:00
I
8 °C 10 km+ 700 ft 180° 180° 10 kt METAR LFOE 261900Z AUTO 18010KT 9999 OVC007 08/07 Q1026 NOSIG
19:30
I
8 °C 10 km+ 600 ft 180° 180° 11 kt METAR LFOE 261830Z AUTO 18011KT 9999 OVC006 08/07 Q1026 NOSIG
19:00
I
8 °C 10 km+ 600 ft 170° 170° 11 kt METAR LFOE 261800Z AUTO 17011KT 9999 OVC006 08/07 Q1026 NOSIG
18:30
I
8 °C 10 km+ 600 ft 170° 170° 11 kt METAR LFOE 261730Z AUTO 17011KT 9999 BKN006 BKN120 08/07 Q1026 NOSIG
18:00
V
8 °C 10 km+ 14,000 ft 170° 170° 10 kt METAR LFOE 261700Z AUTO 17010KT 9999 FEW007 BKN140 08/07 Q1026 BECMG BKN006
17:30
V
8 °C 10 km+ 15,000 ft 180° 180° 8 kt METAR LFOE 261630Z AUTO 18008KT 9999 FEW007 OVC150 08/07 Q1027 BECMG BKN006
17:00
I
8 °C 10 km+ 600 ft 190° 190° 10 kt METAR LFOE 261600Z AUTO 19010KT 9999 OVC006 08/08 Q1027 TEMPO BKN003
16:30
I
9 °C 10 km+ 700 ft 190° 190° 7 kt METAR LFOE 261530Z AUTO 19007KT 9999 BKN007 OVC150 09/08 Q1027 TEMPO BKN003
16:00
I
9 °C 10 km+ 800 ft 190° 190° 9 kt METAR LFOE 261500Z AUTO 19009KT 9999 BKN008 OVC160 09/08 Q1027 TEMPO BKN003
15:30
I
9 °C 10 km+ 800 ft 180° 180° 9 kt METAR LFOE 261430Z AUTO 18009KT 9999 BKN008 OVC160 09/08 Q1027 TEMPO BKN003
15:00
M
10 °C 10 km+ 1,000 ft 180° 180° 8 kt METAR LFOE 261400Z AUTO 18008KT 9999 BKN010 OVC170 10/08 Q1027 NOSIG
14:30
M
10 °C 10 km+ 1,000 ft 190° 190° 7 kt METAR LFOE 261330Z AUTO 19007KT 9999 BKN010 BKN170 OVC190 10/08 Q1028 NOSIG
14:00
V
10 °C 10 km+ 19,000 ft 180° 180° 9 kt METAR LFOE 261300Z AUTO 18009KT 9999 FEW008 SCT170 OVC190 10/09 Q1028 BECMG BKN006
13:30
V
10 °C 10 km+ 20,000 ft 200° 200° 7 kt METAR LFOE 261230Z AUTO 20007KT 9999 FEW009 SCT170 OVC200 10/08 Q1028 BECMG BKN006
13:00
V
10 °C 10 km+ 17,000 ft 200° 200° 7 kt METAR LFOE 261200Z AUTO 20007KT 9999 SCT006 OVC170 10/09 Q1028 BECMG BKN006
12:30
L
9 °C 9 km 300 ft 210° 210° 8 kt METAR LFOE 261130Z AUTO 21008KT 9000 OVC003 09/09 Q1029 BECMG BKN006
12:00
L
8 °C 900 m - 200° 200° 7 kt METAR LFOE 261100Z AUTO 20007KT 0900 R22/1300U FG VV/// 08/08 Q1028 BECMG 9999 NSW BKN006
11:30
L
7 °C 1.3 km 300 ft 210° 210° 10 kt METAR LFOE 261030Z AUTO 21010KT 1800 1300 R22/2000D BR BKN003 07/07 Q1029 BECMG 9999 NSW BKN006
11:00
V
7 °C 10 km+ 20,000 ft 190° 190° 8 kt METAR LFOE 261000Z AUTO 19008KT 9999 FEW006 BKN200 07/06 Q1029 NOSIG

We and third parties follow your internet behavior on our website with cookies. If you continue, we assume you agree with our cookie policy.